2022年9月30日

时间 代码 天气 温度 能见度 天花板 METAR/SPECI
16:30
V
20 °C 10 km+ - 200° 200° 9 kt METAR LEGE 301430Z 20009KT 160V230 9999 VCSH FEW045TCU SCT050 20/10 Q1012
16:00
V
21 °C 10 km+ - 180° 180° 9 kt METAR LEGE 301400Z 18009KT 140V220 9999 VCSH FEW045TCU SCT050 21/10 Q1011
15:30
V
21 °C 10 km+ - 170° 170° 6 kt METAR LEGE 301330Z 17006KT 070V230 9999 VCSH SCT045TCU 21/07 Q1011
15:00
V
21 °C 10 km+ - 190° 190° 4 kt METAR LEGE 301300Z 19004KT 110V250 9999 SCT040TCU 21/09 Q1011
14:30
V
20 °C 10 km+ - 160° 160° 4 kt METAR LEGE 301230Z 16004KT 060V220 9999 FEW030CB SCT040 20/09 Q1011
14:00
V
20 °C 10 km+ - 150° 150° 5 kt METAR LEGE 301200Z 15005KT 100V190 9999 FEW030TCU 20/08 Q1011
13:30
V
19 °C 10 km+ - 020° 020° 4 kt METAR LEGE 301130Z 02004KT 320V080 9999 FEW030TCU 19/07 Q1011
13:00
V
19 °C 10 km+ - 060° 060° 4 kt METAR LEGE 301100Z 06004KT 340V150 9999 FEW030TCU 19/10 Q1011
12:30
V
18 °C 10 km+ - 080° 080° 4 kt METAR LEGE 301030Z 08004KT 030V150 9999 FEW035TCU 18/08 Q1011
12:00
V
18 °C 10 km+ - 130° 130° 4 kt METAR LEGE 301000Z 13004KT 070V220 9999 FEW025 18/06 Q1011
11:30
V
17 °C 10 km+ - 070° 070° 3 kt METAR LEGE 300930Z 07003KT 020V140 9999 FEW015 17/12 Q1010
11:00
V
16 °C 10 km+ - 090° 090° 4 kt METAR LEGE 300900Z 09004KT 050V130 9999 FEW020 16/12 Q1010
10:30
V
15 °C 10 km+ - 110° 110° 1 kt METAR LEGE 300830Z 11001KT 9999 FEW020 15/13 Q1009
10:00
V
13 °C 10 km+ - Var Var 2 kt METAR LEGE 300800Z VRB02KT 9999 FEW010 SCT050 13/12 Q1009
09:30
V
13 °C 10 km+ - Var 000° 0 kt METAR LEGE 300730Z 00000KT 9999 SCT055 13/12 Q1009
09:00
V
12 °C 10 km+ - Var Var 2 kt METAR LEGE 300700Z VRB02KT 9999 SCT055 12/12 Q1008
08:30
V
11 °C 10 km+ - Var Var 1 kt METAR LEGE 300630Z VRB01KT 9999 SCT060 11/11 Q1008
08:00
V
11 °C 10 km+ - 290° 290° 4 kt METAR LEGE 300600Z 29004KT 250V330 9999 FEW060 11/11 Q1007
07:30
V
11 °C 10 km+ - 360° 360° 3 kt METAR LEGE 300530Z 36003KT 320V040 9999 FEW055 11/10 Q1007
07:00
V
11 °C 10 km+ - 020° 020° 3 kt METAR LEGE 300500Z 02003KT 9999 FEW055 11/10 Q1006
06:30
V
11 °C 10 km+ - Var Var 2 kt METAR LEGE 300430Z VRB02KT 9999 FEW055 11/10 Q1006
06:00
V
12 °C 10 km+ - Var 000° 0 kt METAR LEGE 300400Z 00000KT 9999 SCT050 12/12 Q1006
05:30
V
13 °C 10 km+ 5.000 ft 010° 010° 4 kt METAR LEGE 300330Z 01004KT 320V040 9999 BKN050 13/12 Q1006
05:00
V
12 °C 10 km+ - 060° 060° 3 kt METAR LEGE 300300Z 06003KT 020V100 9999 SCT045 12/12 Q1005
04:30
V
12 °C 10 km+ - 290° 290° 3 kt METAR LEGE 300230Z 29003KT 250V360 9999 FEW050 12/12 Q1005
04:00
V
13 °C 10 km+ - 360° 360° 3 kt METAR LEGE 300200Z 36003KT 250V030 9999 FEW050 13/12 Q1005
03:30
V
13 °C 10 km+ - Var Var 1 kt METAR LEGE 300130Z VRB01KT 9999 SCT050 13/12 Q1005
03:00
V
13 °C 10 km+ 8.000 ft Var Var 2 kt METAR LEGE 300100Z VRB02KT 9999 SCT050 BKN080 13/12 Q1005
02:30
V
13 °C 10 km+ - Var Var 1 kt METAR LEGE 300030Z VRB01KT 9999 FEW085 13/12 Q1005
02:00
V
13 °C 10 km+ - 010° 010° 3 kt METAR LEGE 300000Z 01003KT 280V040 9999 FEW085 13/12 Q1006
01:30
V
13 °C 10 km+ - 030° 030° 3 kt METAR LEGE 292330Z 03003KT 010V070 9999 FEW060 SCT085 13/12 Q1005
01:00
V
13 °C 10 km+ 8.500 ft 010° 010° 5 kt METAR LEGE 292300Z 01005KT 320V040 9999 FEW060 BKN085 13/12 Q1005
00:30
V
13 °C 10 km+ 8.500 ft Var Var 1 kt METAR LEGE 292230Z VRB01KT 9999 FEW060 BKN085 13/12 Q1005
00:00
V
13 °C 10 km+ 8.000 ft 360° 360° 3 kt METAR LEGE 292200Z 36003KT 320V070 9999 SCT060 BKN080 13/12 Q1005

2022年9月29日

时间 代码 天气 温度 能见度 天花板 METAR/SPECI
23:30
V
13 °C 10 km+ 6.000 ft Var 000° 0 kt METAR LEGE 292130Z 00000KT 9999 FEW025 BKN060 13/12 Q1005
23:00
V
13 °C 10 km+ 5.500 ft 020° 020° 4 kt METAR LEGE 292100Z 02004KT 9999 -RA FEW025 BKN055 13/12 Q1005
22:30
V
13 °C 10 km+ 5.500 ft 010° 010° 4 kt METAR LEGE 292030Z 01004KT 320V040 9999 -RA FEW025 BKN055 13/12 Q1005
22:00
V
13 °C 10 km+ 5.500 ft Var Var 2 kt METAR LEGE 292000Z VRB02KT 9999 -RA BKN055 13/13 Q1005
21:30
V
13 °C 10 km+ 5.500 ft Var Var 2 kt METAR LEGE 291930Z VRB02KT 9999 -RA FEW020 OVC055 13/13 Q1005
21:00
V
13 °C 10 km+ 5.500 ft 030° 030° 4 kt METAR LEGE 291900Z 03004KT 280V080 9999 -RA FEW020 OVC055 13/13 Q1004
20:30
M
13 °C 7 km 5.000 ft 360° 360° 3 kt METAR LEGE 291830Z 36003KT 300V060 7000 -RA FEW020CB SCT045 OVC050 13/13 Q1005 RESHRA
20:21
V
14 °C 9 km 6.000 ft 010° 010° 5 kt METAR LEGE 291821Z 01005KT 330V060 9000 -RA FEW020CB SCT045 OVC060 14/13 Q1004 RESHRA
20:00
I
14 °C 4 km 4.500 ft 010° 010° 5 kt METAR LEGE 291800Z 01005KT 320V050 4000 SHRA FEW015 SCT030CB OVC045 14/13 Q1004
19:30
V
14 °C 10 km+ 3.000 ft 350° 350° 5 kt METAR LEGE 291730Z 35005KT 280V080 9999 FEW012 OVC030CB 14/13 Q1004
19:00
M
14 °C 10 km+ 2.700 ft 360° 360° 3 kt METAR LEGE 291700Z 36003KT 320V050 9999 FEW015 OVC027CB 14/13 Q1003 RESHRA
18:45
M
14 °C 10 km+ 2.000 ft 020° 020° 4 kt METAR LEGE 291645Z 02004KT 300V050 9999 -RA BKN020CB OVC036 14/13 Q1003 RESHRA
18:35
M
14 °C 7 km 3.000 ft 030° 030° 5 kt METAR LEGE 291635Z 03005KT 320V060 7000 SHRA SCT020CB BKN030 OVC045 14/13 Q1003
18:30
V
14 °C 10 km+ 3.000 ft 040° 040° 6 kt METAR LEGE 291630Z 04006KT 9999 FEW010 BKN030 OVC045 14/13 Q1003
18:00
M
15 °C 10 km+ 2.500 ft 040° 040° 8 kt METAR LEGE 291600Z 04008KT 9999 FEW010 BKN025 OVC040 15/13 Q1003
17:30
M
14 °C 10 km+ 2.400 ft 030° 030° 9 kt METAR LEGE 291530Z 03009KT 9999 FEW010 OVC024 14/13 Q1003
17:00
V
16 °C 10 km+ 3.000 ft 320° 320° 4 kt METAR LEGE 291500Z 32004KT 260V070 9999 -RA FEW015 BKN030 OVC045 16/14 Q1003
16:30
V
17 °C 10 km+ 5.000 ft 100° 100° 5 kt METAR LEGE 291430Z 10005KT 070V130 9999 SCT027 BKN050 17/15 Q1002
16:00
M
17 °C 10 km+ 2.700 ft 100° 100° 5 kt METAR LEGE 291400Z 10005KT 070V150 9999 BKN027 OVC050 17/14 Q1002
15:30
V
16 °C 10 km+ 3.000 ft 140° 140° 7 kt METAR LEGE 291330Z 14007KT 110V180 9999 FEW010 BKN030 OVC060 16/14 Q1002
15:00
M
17 °C 5 km 2.800 ft 140° 140° 5 kt METAR LEGE 291300Z 14005KT 080V190 5000 BR -RA FEW010 OVC028 17/14 Q1003
14:30
V
17 °C 10 km+ 3.000 ft 110° 110° 5 kt METAR LEGE 291230Z 11005KT 050V150 9999 -RA FEW010 BKN030 17/14 Q1002
14:00
M
17 °C 5 km 3.000 ft 130° 130° 8 kt METAR LEGE 291200Z 13008KT 080V160 5000 BR -RA FEW020 BKN030 17/14 Q1003
13:30
V
18 °C 10 km+ 3.500 ft 100° 100° 7 kt METAR LEGE 291130Z 10007KT 060V130 9999 BKN035 18/14 Q1003
13:00
V
17 °C 10 km+ 3.500 ft 120° 120° 7 kt METAR LEGE 291100Z 12007KT 070V170 9999 BKN035 17/13 Q1003
12:30
V
19 °C 10 km+ 4.700 ft 120° 120° 8 kt METAR LEGE 291030Z 12008KT 080V160 9999 FEW030 BKN047 19/14 Q1003
12:00
V
19 °C 10 km+ - 360° 360° 3 kt METAR LEGE 291000Z 36003KT 280V080 9999 FEW025 SCT045 19/10 Q1003
11:30
V
19 °C 10 km+ - 310° 310° 5 kt METAR LEGE 290930Z 31005KT 250V020 9999 FEW020 19/10 Q1003
11:00
V
18 °C 10 km+ - 140° 140° 3 kt METAR LEGE 290900Z 14003KT 110V170 9999 FEW020 18/12 Q1003
10:30
V
19 °C 10 km+ - 190° 190° 2 kt METAR LEGE 290830Z 19002KT 9999 FEW050 19/11 Q1003
10:00
V
18 °C 10 km+ - 280° 280° 3 kt METAR LEGE 290800Z 28003KT 170V330 9999 FEW050 18/12 Q1002
09:30
V
17 °C 10 km+ - 180° 180° 1 kt METAR LEGE 290730Z 18001KT 9999 FEW050 17/11 Q1002
09:00
V
16 °C 10 km+ - 300° 300° 3 kt METAR LEGE 290700Z 30003KT 260V330 9999 FEW045 16/11 Q1002
08:30
V
15 °C 10 km+ - Var 000° 0 kt METAR LEGE 290630Z 00000KT 9999 FEW035 15/14 Q1002
08:00
V
14 °C 10 km+ - Var Var 2 kt METAR LEGE 290600Z VRB02KT 9999 FEW025 14/13 Q1003
07:30
V
15 °C 10 km+ - Var Var 2 kt METAR LEGE 290530Z VRB02KT 9999 FEW030 SCT045 15/14 Q1003
07:00
V
14 °C 10 km+ - Var 000° 0 kt METAR LEGE 290500Z 00000KT 9999 FEW030 14/13 Q1003
06:30
V
14 °C 10 km+ - 040° 040° 3 kt METAR LEGE 290430Z 04003KT 010V070 9999 FEW080 14/14 Q1003
06:00
V
15 °C 10 km+ - 050° 050° 3 kt METAR LEGE 290400Z 05003KT 9999 FEW040 15/14 Q1003
05:30
V
15 °C 10 km+ - 240° 240° 3 kt METAR LEGE 290330Z 24003KT 210V280 9999 SCT040 15/14 Q1003
05:00
V
15 °C 10 km+ - Var 000° 0 kt METAR LEGE 290300Z 00000KT 9999 SCT040 15/14 Q1003
04:30
V
16 °C 10 km+ 6.000 ft 270° 270° 3 kt METAR LEGE 290230Z 27003KT 9999 SCT040 BKN060 16/14 Q1004
04:00
V
16 °C 10 km+ 4.000 ft 180° 180° 3 kt METAR LEGE 290200Z 18003KT 130V230 9999 BKN040 16/14 Q1004
03:30
V
16 °C 10 km+ 6.000 ft Var Var 1 kt METAR LEGE 290130Z VRB01KT 9999 BKN060 16/13 Q1004
03:00
V
16 °C 10 km+ - Var Var 2 kt METAR LEGE 290100Z VRB02KT 9999 SCT060 16/13 Q1005
02:30
V
16 °C 10 km+ 6.000 ft 060° 060° 3 kt METAR LEGE 290030Z 06003KT 9999 BKN060 16/13 Q1005
02:00
V
16 °C 10 km+ 6.000 ft 060° 060° 3 kt METAR LEGE 290000Z 06003KT 9999 OVC060 16/13 Q1005
01:30
V
17 °C 10 km+ 6.000 ft Var Var 2 kt METAR LEGE 282330Z VRB02KT 9999 BKN060 17/13 Q1005
01:00
V
17 °C 10 km+ 5.000 ft 270° 270° 4 kt METAR LEGE 282300Z 27004KT 230V300 9999 BKN050 17/13 Q1006
00:30
V
17 °C 10 km+ 3.000 ft 360° 360° 3 kt METAR LEGE 282230Z 36003KT 310V050 9999 BKN030 17/13 Q1006
00:00
V
17 °C 10 km+ 3.000 ft 010° 010° 6 kt METAR LEGE 282200Z 01006KT 310V030 9999 BKN030 17/14 Q1006

2022年9月28日

时间 代码 天气 温度 能见度 天花板 METAR/SPECI
23:30
V
18 °C 10 km+ 6.500 ft 020° 020° 6 kt METAR LEGE 282130Z 02006KT 9999 BKN065 18/14 Q1006
23:00
V
18 °C 10 km+ 6.000 ft 010° 010° 4 kt METAR LEGE 282100Z 01004KT 330V050 9999 VCTS FEW040CB BKN060 18/13 Q1006
22:30
V
18 °C 10 km+ - 330° 330° 3 kt METAR LEGE 282030Z 33003KT 290V020 9999 SCT060 18/13 Q1006
22:00
V
17 °C 10 km+ - 040° 040° 4 kt METAR LEGE 282000Z 04004KT 010V090 9999 FEW060 17/14 Q1006
21:30
V
18 °C 10 km+ - 030° 030° 10 kt METAR LEGE 281930Z 03010KT 9999 SCT070 18/14 Q1005
21:00
V
19 °C 10 km+ - 020° 020° 10 kt METAR LEGE 281900Z 02010KT 9999 VCTS FEW050CB SCT070 19/15 Q1005
20:30
V
19 °C 10 km+ - 360° 360° 5 kt METAR LEGE 281830Z 36005KT 320V050 9999 FEW050 19/14 Q1005
20:00
V
20 °C 10 km+ - 060° 060° 4 kt METAR LEGE 281800Z 06004KT 030V090 9999 FEW050 20/13 Q1005
19:30
V
21 °C 10 km+ - 090° 090° 5 kt METAR LEGE 281730Z 09005KT 060V120 9999 SCT050 21/13 Q1005
19:00
V
21 °C 10 km+ - 080° 080° 6 kt METAR LEGE 281700Z 08006KT 050V130 9999 SCT050 21/13 Q1005
18:30
V
23 °C 10 km+ - 140° 140° 7 kt METAR LEGE 281630Z 14007KT 110V170 9999 FEW040TCU 23/13 Q1004
18:00
V
24 °C 10 km+ - 150° 150° 6 kt METAR LEGE 281600Z 15006KT 110V200 9999 FEW040TCU 24/14 Q1004
17:30
V
25 °C 10 km+ - 180° 180° 3 kt METAR LEGE 281530Z 18003KT 110V250 9999 FEW040TCU 25/13 Q1004
17:00
V
25 °C 10 km+ - Var Var 2 kt METAR LEGE 281500Z VRB02KT 9999 FEW040TCU 25/12 Q1004
较旧的数据

我们和第三方通过cookies跟踪您在我们网站上的上网行为。如果您继续,我们认为您同意我们的cookie政策。 了解更多